Portada
METAR-TAF:

METAR-TAF

Aeroports :

Aeroport Internacional de Cardiff

Cardiff, Gal·les

latitud: 51-24N, longitud: 003-21W, altitud: 67 m

Observació

L'informe es va fer fa 36 minuts, a les 19:20 UTC
Vent 8 kt del Est/Sud-Est
Temperatura 22°C
Humitat 57%
Pressió 1016 hPa
Visibilitat 10 km o més

METAR: EGFF 241920Z AUTO 11008KT 9999 NCD 22/13 Q1016

Hora: 20:56 (19:56 UTC)

Pronòstic

L'informe es va fer fa 3 hores i 0 minuts, a les 16:56 UTC
Pronòstic vàlid del 24 a les 18 UTC al 25 a les 18 UTC
Vent 3 kt amb direcció variable
Visibilitat 10 km o més
Escasses núvols a una alçada de 4500 ft
Temporalment
l' 25 a les 03 UTC al 25 a les 09 UTC
Visibilitat: 7000 m
Cel ennuvolat a una alçada de 1400 ft

TAF: EGFF 241656Z 2418/2518 VRB03KT 9999 FEW045 TEMPO 2503/2509 7000 BKN014

Observacions i pronòstics meteorològics de més de 4000 aeroports (METAR i TAF).

Les estacions disponibles són els punts grocs i vermells al mapa.

Posi el ratolí al punt desitjat per veure el nom de l'estació.

Feu clic per veure les observacions i els pronòstics meteorològics.

Per canviar el mapa: feu clic els botons verds amb una creu de color negre per apropar; al botó verd amb un guió per allunyar la imatge; o en les fletxes verdes per a mapes adjacents.


METAR-TAF: